Wilkesville, Ohio
Current Conditions -  °F | °C
As of 3:15 AM on Friday 28 Nov 2014 (Local Time) from KUNI Reporting Station
Overcast Overcast  
Wind Chill: 21°   Ceiling: 4600
Heat Index: 28°   Visibility: 10mi
Dew Point: 20°   Wind: 7mph
Humidity: 72%   Direction: 260°W
Pressure: 30.35"   Gusts: NA
Location:  39.07°N, 82.33°W
Report Text: KUNI 280815Z AUTO 26006KT 10SM OVC046 M02/M06 A3035 RMK AO2 T10201065
Loading
Personal Weather Stations






























Interactive Weather Map New forecast layout! Learn more

10-Day Weather Forecast

Advertisements
Track Severe Weather on mobile